Terminal Aerodrome Forecast
Issued by NWS Pocatello, ID

Home | Current Version | Previous Version | Text Only | Print | Product List | Glossary On
Versions: 1 2 3 4 5 6 7 8 9 10 11 12 13 14 15 16 17
244
FTUS45 KPIH 271833 AAA
TAFIDA
TAF AMD
KIDA 271833Z 2719/2818 23010KT P6SM -SHRA VCTS SCT015 BKN035CB
      BKN070
      TEMPO 2719/2722 BKN015CB OVC035
     FM280000 36015KT P6SM VCSH SCT040 BKN060 OVC090
     FM281030 34010KT P6SM FEW025 SCT100 SCT160=

USA.gov is the U.S. government's official web portal to all federal, state and local government web resources and services.